Phillips, WI

6:48 AM CDT on October 23, 2014 (GMT -0500)
Downtown (BP station) | Change Station
CLOSE
Current Station
Personal Weather Station
Location: Phillips, WI
Elevation: 1470 ft
Nearby Weather Stations

Elev 1470 ft 45.69 °N, 90.40 °W | Updated 14 minutes ago

Overcast
Overcast
44.3 °F
Feels Like 44 °F
N
1.0
Wind Variable Wind from SSW
Gusts 8.0 mph

Today
High -- | Low -- °F
--% Chance of Precip.
Yesterday
High -- | Low -- °F
Precip. -- in
7:28 AM 6:02 PM
Waning Crescent, 0% visible
Pressure 30.04 in
Visibility 10.0 miles
Clouds Overcast 2000 ft
Windchill 44 °F
Dew Point 40 °F
Humidity 86%
Rainfall 0.02 in
Snow Depth Not available.
UV 0 out of 12
Pollen .10 out of 12
Air Quality Not available.
Flu Activity Sporadic
METAR KPBH 231135Z AUTO 17005KT 10SM OVC020 07/05 A3004 RMK AO2 T00670046

More Conditions Fewer Conditions

Pressure 30.04 in
Visibility 10.0 miles
Clouds Overcast 2000 ft
Windchill 44 °F
Dew Point 40 °F
Humidity 86%
Rainfall 0.02 in
Snow Depth Not available.
UV 0 out of 12
Pollen .10 out of 12
Air Quality Not available.
Flu Activity Sporadic
METAR KPBH 231135Z AUTO 17005KT 10SM OVC020 07/05 A3004 RMK AO2 T00670046

More Conditions Fewer Conditions

10-Day Weather Forecast

Almanac

Astronomy

Oct. 23, 2014 Rise Set
Actual Time 7:28 AM CDT 6:02 PM CDT
Civil Twilight 6:58 AM CDT 6:32 PM CDT
Nautical Twilight 6:23 AM CDT 7:07 PM CDT
Astronomical Twilight 5:49 AM CDT 7:41 PM CDT
Moon 7:07 AM CDT 6:03 PM CDT
Length of Visible Light 11h 33m
Length of Day
10h 33m
Tomorrow will be 3m 1s shorter.
Waning Crescent, 0% of the Moon is Illuminated
Today
Waning Crescent
Oct 23
New
Oct 30
First Quarter
Nov 6
Full
Nov 14
Last Quarter

Today's Extremes

State Highs State Lows

Community

WunderPhotos

Upload Photos

1,764,209 photos uploaded!

Nearby

Snow Depth

Station Depth Elevation
No new snow has been reported.

Earthquake Activity

City Distance Mag. Time & Date
No recent earthquake activity has been reported nearby.
Minimum magnitude displayed is 2.5.

Coastal Water Temperatures

Place Temperature
No Stations Reporting

Nearby Weather Stations